Time;durP1;ratioP1;P1;durP2;ratioP2;P2;SDS_P1;SDS_P2;PMS_P1;PMS_P2;Temp;Humidity;BMP_temperature;BMP_pressure;BME280_temperature;BME280_humidity;BME280_pressure;Samples;Min_cycle;Max_cycle;Signal;HPM_P1;HPM_P2
2024/01/16 00:01:22;;;;;;;6.47;0.90;;;0.30;99.90;;;;;;5028776;28;20033;-59
2024/01/16 00:03:47;;;;;;;10.63;1.52;;;1.00;99.90;;;;;;5028578;28;20710;-59
2024/01/16 00:06:13;;;;;;;2.22;0.50;;;1.00;99.90;;;;;;5049539;28;20055;-57
2024/01/16 00:08:39;;;;;;;6.85;1.08;;;0.80;99.90;;;;;;5093722;28;20039;-58
2024/01/16 00:11:05;;;;;;;11.23;0.95;;;0.60;99.90;;;;;;5111427;28;20085;-58
2024/01/16 00:13:32;;;;;;;7.60;1.67;;;1.00;99.90;;;;;;5110967;28;20047;-59
2024/01/16 00:15:58;;;;;;;6.60;0.68;;;0.20;99.90;;;;;;5111577;28;20039;-58
2024/01/16 00:18:24;;;;;;;12.70;1.02;;;1.10;99.90;;;;;;5111526;28;20386;-59
2024/01/16 00:20:49;;;;;;;6.53;0.77;;;0.10;99.90;;;;;;5111671;28;20042;-61
2024/01/16 00:23:15;;;;;;;6.32;0.82;;;0.00;99.90;;;;;;5111542;28;20032;-60
2024/01/16 00:25:41;;;;;;;7.32;1.10;;;1.00;99.90;;;;;;5111348;28;20062;-60
2024/01/16 00:28:07;;;;;;;6.75;0.65;;;-0.10;99.90;;;;;;5111266;28;20080;-59
2024/01/16 00:30:33;;;;;;;7.82;0.85;;;0.00;99.90;;;;;;5111335;28;20467;-58
2024/01/16 00:32:59;;;;;;;7.30;0.68;;;-0.20;99.90;;;;;;5030759;28;20073;-59
2024/01/16 00:35:25;;;;;;;3.92;0.43;;;0.30;99.90;;;;;;5051693;28;20117;-60
2024/01/16 00:37:51;;;;;;;5.30;0.70;;;-0.10;99.90;;;;;;5027848;28;20166;-58
2024/01/16 00:40:16;;;;;;;10.73;1.42;;;0.60;99.90;;;;;;5027869;28;20037;-59
2024/01/16 00:42:42;;;;;;;4.32;0.60;;;0.60;99.90;;;;;;5027751;28;20037;-58
2024/01/16 00:45:08;;;;;;;6.50;1.08;;;0.00;99.90;;;;;;5026475;28;20076;-58
2024/01/16 00:47:34;;;;;;;11.15;1.13;;;-0.30;99.90;;;;;;5026639;28;20483;-58
2024/01/16 00:50:01;;;;;;;4.78;0.75;;;0.70;99.90;;;;;;5025731;28;20045;-61
2024/01/16 00:52:27;;;;;;;3.80;1.13;;;0.10;99.90;;;;;;5085838;28;20082;-60
2024/01/16 00:54:52;;;;;;;5.32;1.08;;;0.60;99.90;;;;;;5027641;28;20076;-60
2024/01/16 00:57:19;;;;;;;10.27;1.10;;;0.60;99.90;;;;;;5028803;28;20038;-61
2024/01/16 00:59:48;;;;;;;8.18;0.90;;;0.70;99.90;;;;;;5048102;28;20054;-57
2024/01/16 01:02:15;;;;;;;10.90;1.25;;;-0.30;99.90;;;;;;5114665;28;20032;-58
2024/01/16 01:04:41;;;;;;;5.30;0.60;;;0.80;99.90;;;;;;5107611;28;20051;-59
2024/01/16 01:07:08;;;;;;;9.93;0.98;;;-0.40;99.90;;;;;;5115333;28;20487;-58
2024/01/16 01:09:34;;;;;;;5.28;1.17;;;0.60;99.90;;;;;;5106972;28;20048;-56
2024/01/16 01:11:59;;;;;;;9.38;0.80;;;0.50;99.90;;;;;;5092814;28;20050;-59
2024/01/16 01:14:28;;;;;;;5.18;0.93;;;-0.60;99.90;;;;;;5108750;28;20024;-59
2024/01/16 01:16:54;;;;;;;6.15;1.10;;;-0.60;99.90;;;;;;5111003;28;20131;-58
2024/01/16 01:19:20;;;;;;;9.70;0.90;;;0.40;99.90;;;;;;5107678;28;20546;-60
2024/01/16 01:21:46;;;;;;;10.85;0.85;;;-0.70;99.90;;;;;;5113849;28;20036;-59
2024/01/16 01:24:11;;;;;;;10.95;0.88;;;0.40;99.90;;;;;;5082088;28;20039;-59
2024/01/16 01:26:37;;;;;;;6.68;0.90;;;0.30;99.90;;;;;;5025406;28;20087;-58
2024/01/16 01:29:02;;;;;;;6.35;0.65;;;0.20;99.90;;;;;;5114019;28;20039;-60
2024/01/16 01:31:28;;;;;;;9.15;1.05;;;-0.80;99.90;;;;;;5112423;28;20037;-59
2024/01/16 01:33:54;;;;;;;5.05;1.00;;;0.20;99.90;;;;;;5114556;28;20363;-57
2024/01/16 01:36:19;;;;;;;2.92;0.80;;;-0.40;99.90;;;;;;5085517;28;20075;-60
2024/01/16 01:38:45;;;;;;;6.18;0.85;;;-0.80;99.90;;;;;;5110970;28;20050;-57
2024/01/16 01:41:14;;;;;;;5.07;1.00;;;-0.80;99.90;;;;;;5034049;28;20081;-59
2024/01/16 01:43:40;;;;;;;8.45;0.90;;;-0.90;99.90;;;;;;5030063;28;20092;-57
2024/01/16 01:46:14;;;;;;;6.15;0.70;;;-0.30;99.90;;;;;;5030562;28;20076;-59
2024/01/16 01:48:43;;;;;;;5.80;0.60;;;-0.60;99.90;;;;;;5065086;28;20040;-57
2024/01/16 01:51:10;;;;;;;8.73;0.85;;;0.00;99.90;;;;;;5114241;28;20475;-57
2024/01/16 01:53:37;;;;;;;6.15;1.13;;;-0.80;99.90;;;;;;5030760;28;20399;-58
2024/01/16 01:56:07;;;;;;;4.85;0.70;;;-0.40;99.90;;;;;;5030706;28;20037;-59
2024/01/16 01:58:39;;;;;;;3.75;1.00;;;-0.40;99.90;;;;;;5030330;28;20048;-59
2024/01/16 02:01:07;;;;;;;8.93;1.20;;;-0.80;99.90;;;;;;5023607;28;20115;-57
2024/01/16 02:03:44;;;;;;;11.13;1.15;;;-0.80;99.90;;;;;;5108334;28;20040;-57
2024/01/16 02:06:11;;;;;;;14.40;1.20;;;-0.70;99.90;;;;;;5108572;28;20065;-58
2024/01/16 02:08:37;;;;;;;5.45;0.70;;;-0.70;99.90;;;;;;5026171;28;20107;-60
2024/01/16 02:11:03;;;;;;;4.60;0.75;;;-0.10;99.90;;;;;;5083326;28;20038;-58
2024/01/16 02:13:29;;;;;;;4.35;0.93;;;-0.60;99.90;;;;;;5067195;28;20114;-58
2024/01/16 02:15:54;;;;;;;13.70;1.20;;;-0.60;99.90;;;;;;5066901;28;20044;-57
2024/01/16 02:18:20;;;;;;;6.65;1.10;;;-0.60;99.90;;;;;;5074918;28;20034;-58
2024/01/16 02:20:47;;;;;;;9.55;0.93;;;0.20;99.90;;;;;;5064866;28;20091;-55
2024/01/16 02:23:14;;;;;;;5.25;1.02;;;-0.50;99.90;;;;;;5075713;28;20048;-58
2024/01/16 02:25:44;;;;;;;4.82;0.95;;;-0.60;99.90;;;;;;5019637;28;20101;-59
2024/01/16 02:28:10;;;;;;;12.18;1.05;;;-0.20;99.90;;;;;;5073341;28;20047;-57
2024/01/16 02:30:36;;;;;;;9.25;0.80;;;0.10;99.90;;;;;;5087083;28;20115;-58
2024/01/16 02:33:03;;;;;;;14.52;1.23;;;0.50;99.90;;;;;;5073688;28;20040;-58
2024/01/16 02:35:29;;;;;;;8.05;1.00;;;0.40;99.90;;;;;;5077077;28;20036;-58
2024/01/16 02:37:55;;;;;;;8.52;0.95;;;0.00;99.90;;;;;;5074282;27;20373;-56
2024/01/16 02:40:20;;;;;;;11.68;2.22;;;0.10;99.90;;;;;;5090173;27;20118;-58
2024/01/16 02:42:46;;;;;;;6.97;1.10;;;0.30;99.90;;;;;;5069052;28;20034;-59
2024/01/16 02:45:13;;;;;;;8.55;0.90;;;-0.10;99.90;;;;;;5083968;28;20047;-58
2024/01/16 02:47:38;;;;;;;9.63;1.38;;;-0.50;99.90;;;;;;5075849;28;20082;-58
2024/01/16 02:50:05;;;;;;;7.45;0.90;;;0.50;99.90;;;;;;5093383;28;20036;-57
2024/01/16 02:52:30;;;;;;;11.10;1.02;;;0.30;99.90;;;;;;5080675;28;20056;-57
2024/01/16 02:54:56;;;;;;;5.18;0.93;;;0.50;99.90;;;;;;5076515;28;20118;-58
2024/01/16 02:57:22;;;;;;;12.02;1.50;;;-0.40;99.90;;;;;;5019998;28;20045;-59
2024/01/16 02:59:47;;;;;;;11.68;1.20;;;0.40;99.90;;;;;;5085112;28;20116;-56
2024/01/16 03:02:13;;;;;;;8.40;1.17;;;-0.40;99.90;;;;;;5066436;28;20126;-58
2024/01/16 03:04:39;;;;;;;9.05;1.25;;;-0.60;99.90;;;;;;5078689;28;20139;-55
2024/01/16 03:07:05;;;;;;;9.02;0.93;;;0.30;99.90;;;;;;5060565;28;20044;-57
2024/01/16 03:09:31;;;;;;;12.65;1.20;;;0.30;99.90;;;;;;5077969;28;20043;-58
2024/01/16 03:11:57;;;;;;;8.50;1.02;;;-0.70;99.90;;;;;;5083716;28;20133;-58
2024/01/16 03:14:23;;;;;;;5.40;0.55;;;0.20;99.90;;;;;;5077157;28;20035;-56
2024/01/16 03:16:49;;;;;;;5.40;0.80;;;0.10;99.90;;;;;;5079627;28;20042;-58
2024/01/16 03:19:15;;;;;;;2.30;0.60;;;0.20;99.90;;;;;;5076138;28;20078;-59
2024/01/16 03:21:41;;;;;;;6.10;0.70;;;-0.10;99.90;;;;;;5076290;28;20370;-57
2024/01/16 03:24:07;;;;;;;4.85;0.70;;;-0.60;99.90;;;;;;5029979;28;20075;-56
2024/01/16 03:26:32;;;;;;;7.07;1.52;;;-0.70;99.90;;;;;;5075506;27;20493;-58
2024/01/16 03:28:58;;;;;;;8.50;0.77;;;0.10;99.90;;;;;;5017312;28;20045;-55
2024/01/16 03:31:24;;;;;;;6.10;0.77;;;0.20;99.90;;;;;;5080380;28;20042;-57
2024/01/16 03:33:50;;;;;;;9.10;1.23;;;0.00;99.90;;;;;;5083799;28;20096;-56
2024/01/16 03:36:16;;;;;;;2.88;0.63;;;-0.20;99.90;;;;;;5073949;28;20039;-57
2024/01/16 03:38:44;;;;;;;4.75;0.75;;;-0.70;99.90;;;;;;5070800;28;20386;-57
2024/01/16 03:41:13;;;;;;;4.78;0.82;;;-0.10;99.90;;;;;;5110926;28;20123;-56
2024/01/16 03:43:39;;;;;;;6.43;0.90;;;-0.80;99.90;;;;;;5112016;28;20035;-57
2024/01/16 03:46:05;;;;;;;6.55;1.17;;;-0.20;99.90;;;;;;5111834;28;20093;-56
2024/01/16 03:48:31;;;;;;;7.20;0.95;;;0.00;99.90;;;;;;5112269;28;20035;-58
2024/01/16 03:50:56;;;;;;;6.43;0.88;;;-0.90;99.90;;;;;;5027690;28;20106;-57
2024/01/16 03:53:22;;;;;;;5.88;1.25;;;-0.90;99.90;;;;;;5029100;28;20037;-58
2024/01/16 03:55:49;;;;;;;6.78;0.77;;;-0.90;99.90;;;;;;5029037;28;20025;-55
2024/01/16 03:58:18;;;;;;;5.97;0.90;;;0.00;99.90;;;;;;5077441;28;20490;-57
2024/01/16 04:00:44;;;;;;;10.98;1.50;;;0.00;99.90;;;;;;5111384;27;20067;-55
2024/01/16 04:03:11;;;;;;;4.18;0.95;;;-0.70;99.90;;;;;;5111968;28;20048;-57
2024/01/16 04:05:36;;;;;;;8.65;1.08;;;0.10;99.90;;;;;;5029691;28;20633;-58
2024/01/16 04:08:02;;;;;;;6.47;0.85;;;-0.50;99.90;;;;;;5028544;28;20049;-58
2024/01/16 04:10:28;;;;;;;5.72;1.40;;;-0.70;99.90;;;;;;5028822;28;20038;-57
2024/01/16 04:12:53;;;;;;;7.45;0.93;;;0.10;99.90;;;;;;5028438;28;20041;-57
2024/01/16 04:15:19;;;;;;;6.63;0.90;;;-0.60;99.90;;;;;;5028226;28;20480;-58
2024/01/16 04:17:45;;;;;;;8.32;1.40;;;0.00;99.90;;;;;;5028587;28;20498;-56
2024/01/16 04:20:11;;;;;;;5.15;0.75;;;0.00;99.90;;;;;;5033690;28;20488;-56
2024/01/16 04:22:36;;;;;;;4.25;0.82;;;-0.20;99.90;;;;;;5032486;28;20040;-59
2024/01/16 04:25:04;;;;;;;6.13;0.80;;;0.10;99.90;;;;;;5028120;28;20392;-58
2024/01/16 04:27:31;;;;;;;7.32;1.02;;;-0.80;99.90;;;;;;5028049;28;20098;-58
2024/01/16 04:29:57;;;;;;;7.25;1.20;;;-0.10;99.90;;;;;;5028254;28;20048;-58
2024/01/16 04:32:23;;;;;;;8.73;1.73;;;0.20;99.90;;;;;;5082369;28;20039;-57
2024/01/16 04:34:48;;;;;;;11.70;1.25;;;-0.30;99.90;;;;;;5111012;28;20118;-57
2024/01/16 04:37:14;;;;;;;7.57;1.13;;;0.20;99.90;;;;;;5110920;28;20050;-59
2024/01/16 04:39:40;;;;;;;8.32;1.38;;;-0.60;99.90;;;;;;5090301;28;20083;-57
2024/01/16 04:42:05;;;;;;;5.20;1.17;;;-0.60;99.90;;;;;;5108498;28;20040;-57
2024/01/16 04:44:31;;;;;;;12.57;1.55;;;0.40;99.90;;;;;;5111083;28;20060;-58
2024/01/16 04:46:56;;;;;;;9.82;0.90;;;0.20;99.90;;;;;;5111132;28;20398;-57
2024/01/16 04:49:22;;;;;;;11.50;1.52;;;0.40;99.90;;;;;;5103454;28;20542;-56
2024/01/16 04:51:48;;;;;;;5.85;1.05;;;0.50;99.90;;;;;;5110907;28;20135;-57
2024/01/16 04:54:13;;;;;;;8.13;1.10;;;-0.40;99.90;;;;;;5104591;28;20070;-56
2024/01/16 04:56:39;;;;;;;9.80;1.55;;;0.10;99.90;;;;;;5111305;28;20039;-56
2024/01/16 04:59:05;;;;;;;6.55;1.17;;;0.30;99.90;;;;;;5111201;28;20445;-58
2024/01/16 05:01:31;;;;;;;10.48;1.65;;;-0.20;99.90;;;;;;5110936;28;20494;-58
2024/01/16 05:03:56;;;;;;;5.55;0.90;;;0.50;99.90;;;;;;5111282;28;20027;-61
2024/01/16 05:06:22;;;;;;;12.57;1.55;;;0.30;99.90;;;;;;5110532;28;20117;-55
2024/01/16 05:08:48;;;;;;;10.00;1.10;;;0.40;99.90;;;;;;5111109;28;20044;-57
2024/01/16 05:11:14;;;;;;;7.05;1.20;;;0.30;99.90;;;;;;5106325;28;20510;-55
2024/01/16 05:13:39;;;;;;;2.80;0.80;;;0.40;99.90;;;;;;5110511;28;20040;-58
2024/01/16 05:16:05;;;;;;;7.45;0.98;;;-0.40;99.90;;;;;;5104494;28;20040;-58
2024/01/16 05:18:32;;;;;;;5.90;1.10;;;-0.60;99.90;;;;;;5110895;28;20030;-58
2024/01/16 05:20:58;;;;;;;7.85;1.15;;;-0.30;99.90;;;;;;5110356;28;20039;-59
2024/01/16 05:23:24;;;;;;;4.95;1.02;;;-0.70;99.90;;;;;;5110888;28;20494;-58
2024/01/16 05:25:49;;;;;;;7.20;1.35;;;-0.70;99.90;;;;;;5110619;28;20043;-57
2024/01/16 05:28:15;;;;;;;7.00;1.35;;;-0.70;99.90;;;;;;5110949;28;20035;-57
2024/01/16 05:30:41;;;;;;;4.47;1.00;;;0.20;99.90;;;;;;5042619;28;20132;-57
2024/01/16 05:33:08;;;;;;;10.73;1.30;;;0.10;99.90;;;;;;5090889;28;20086;-55
2024/01/16 05:35:34;;;;;;;8.00;0.95;;;0.30;99.90;;;;;;5054480;28;20563;-58
2024/01/16 05:37:59;;;;;;;7.30;1.00;;;0.30;99.90;;;;;;5060135;28;20114;-58
2024/01/16 05:40:25;;;;;;;7.15;1.38;;;0.10;99.90;;;;;;5086192;28;20093;-57
2024/01/16 05:42:51;;;;;;;6.93;1.25;;;-0.80;99.90;;;;;;5109407;28;20062;-57
2024/01/16 05:45:17;;;;;;;11.55;1.92;;;0.10;99.90;;;;;;5114706;28;20039;-58
2024/01/16 05:47:43;;;;;;;8.73;1.40;;;0.10;99.90;;;;;;5029385;28;20069;-56
2024/01/16 05:50:09;;;;;;;9.68;1.83;;;-0.70;99.90;;;;;;5030587;28;20109;-57
2024/01/16 05:52:36;;;;;;;10.02;2.35;;;0.40;99.90;;;;;;5030839;28;20105;-57
2024/01/16 05:55:03;;;;;;;6.22;1.77;;;-0.60;99.90;;;;;;5030449;28;20080;-58
2024/01/16 05:57:33;;;;;;;9.00;2.20;;;0.00;99.90;;;;;;5030542;28;20076;-58
2024/01/16 06:00:03;;;;;;;7.07;1.75;;;0.00;99.90;;;;;;5074147;28;20043;-58
2024/01/16 06:02:28;;;;;;;7.35;1.90;;;-0.40;99.90;;;;;;5113653;28;20398;-57
2024/01/16 06:04:54;;;;;;;8.82;2.25;;;-0.60;99.90;;;;;;5033701;28;20041;-57
2024/01/16 06:07:20;;;;;;;7.38;2.28;;;0.10;99.90;;;;;;5013655;28;20057;-56
2024/01/16 06:09:46;;;;;;;9.25;2.00;;;0.40;99.90;;;;;;5029664;28;20072;-57
2024/01/16 06:12:12;;;;;;;5.85;2.05;;;0.50;99.90;;;;;;5030375;28;20049;-57
2024/01/16 06:14:38;;;;;;;8.70;1.80;;;0.00;99.90;;;;;;5029792;28;20037;-57
2024/01/16 06:17:05;;;;;;;17.92;2.53;;;0.20;99.90;;;;;;5030318;28;20041;-58
2024/01/16 06:19:32;;;;;;;8.05;2.38;;;-0.20;99.90;;;;;;5030204;28;20076;-56
2024/01/16 06:21:58;;;;;;;15.48;3.08;;;-0.40;99.90;;;;;;5030684;28;20032;-58
2024/01/16 06:24:24;;;;;;;9.70;2.40;;;0.00;99.90;;;;;;5103985;28;20042;-57
2024/01/16 06:26:50;;;;;;;8.77;2.30;;;0.50;99.90;;;;;;5111066;28;20507;-56
2024/01/16 06:29:15;;;;;;;9.35;2.70;;;-0.40;99.90;;;;;;5100693;28;20432;-57
2024/01/16 06:31:41;;;;;;;8.73;3.15;;;0.00;99.90;;;;;;5109140;28;20058;-59
2024/01/16 06:34:06;;;;;;;9.90;3.15;;;-0.50;99.90;;;;;;5113340;28;20040;-56
2024/01/16 06:36:32;;;;;;;7.13;2.10;;;0.50;99.90;;;;;;5106081;28;20036;-58
2024/01/16 06:38:58;;;;;;;11.00;2.22;;;0.10;99.90;;;;;;5075666;28;20044;-57
2024/01/16 06:41:24;;;;;;;7.40;2.45;;;-0.30;99.90;;;;;;5028219;28;20037;-58
2024/01/16 06:43:49;;;;;;;7.20;2.60;;;0.30;99.90;;;;;;5031252;28;20111;-57
2024/01/16 06:46:15;;;;;;;10.32;3.20;;;-0.10;99.90;;;;;;5024284;28;20513;-56
2024/01/16 06:48:41;;;;;;;7.32;2.97;;;-0.10;99.90;;;;;;5113015;28;20478;-56
2024/01/16 06:51:07;;;;;;;10.45;2.78;;;0.60;99.90;;;;;;5113303;28;20031;-58
2024/01/16 06:53:33;;;;;;;11.13;2.95;;;0.10;99.90;;;;;;5031961;28;20041;-55
2024/01/16 06:55:59;;;;;;;8.80;2.90;;;0.50;99.90;;;;;;5028701;28;20045;-56
2024/01/16 06:58:25;;;;;;;16.40;3.63;;;-0.60;99.90;;;;;;5029403;28;20029;-56
2024/01/16 07:00:50;;;;;;;6.50;2.58;;;-0.30;99.90;;;;;;5028156;28;20033;-57
2024/01/16 07:03:17;;;;;;;12.57;2.90;;;0.40;99.90;;;;;;5029576;28;20045;-58
2024/01/16 07:05:43;;;;;;;8.57;2.88;;;-0.30;99.90;;;;;;5064097;28;20454;-57
2024/01/16 07:08:09;;;;;;;8.20;2.30;;;-0.10;99.90;;;;;;5106202;28;20510;-57
2024/01/16 07:10:35;;;;;;;7.88;2.33;;;0.60;99.90;;;;;;5112400;27;20100;-57
2024/01/16 07:13:02;;;;;;;8.70;2.80;;;0.30;99.90;;;;;;5112432;28;20032;-57
2024/01/16 07:15:28;;;;;;;10.77;2.92;;;-0.40;99.90;;;;;;5112661;28;20039;-57
2024/01/16 07:17:53;;;;;;;11.20;2.78;;;-0.60;99.90;;;;;;5030592;28;20042;-56
2024/01/16 07:20:19;;;;;;;8.18;2.60;;;0.60;99.90;;;;;;5029078;28;20045;-56
2024/01/16 07:22:45;;;;;;;9.05;2.97;;;0.50;99.90;;;;;;5029149;28;20051;-56
2024/01/16 07:25:11;;;;;;;11.88;2.95;;;0.60;99.90;;;;;;5029467;28;20041;-55
2024/01/16 07:27:37;;;;;;;13.43;3.38;;;0.80;99.90;;;;;;5029374;28;20385;-56
2024/01/16 07:30:06;;;;;;;13.25;3.05;;;0.20;99.90;;;;;;5029021;28;20040;-57
2024/01/16 07:32:32;;;;;;;12.25;4.10;;;0.60;99.90;;;;;;5105873;28;20043;-58
2024/01/16 07:34:58;;;;;;;13.52;4.68;;;0.80;99.90;;;;;;5112219;28;20485;-58
2024/01/16 07:37:23;;;;;;;10.73;3.47;;;-0.50;99.90;;;;;;5112194;28;20134;-58
2024/01/16 07:39:49;;;;;;;10.75;3.50;;;-0.10;99.90;;;;;;5043253;28;20035;-57
2024/01/16 07:42:15;;;;;;;9.98;4.20;;;-0.30;99.90;;;;;;5105146;28;20583;-58
2024/01/16 07:44:41;;;;;;;14.60;4.43;;;-0.30;99.90;;;;;;5027172;28;20045;-56
2024/01/16 07:47:07;;;;;;;12.57;4.28;;;0.90;99.90;;;;;;5112152;28;20040;-57
2024/01/16 07:49:33;;;;;;;10.75;4.32;;;-0.20;99.90;;;;;;5111926;28;20051;-58
2024/01/16 07:51:59;;;;;;;14.30;4.28;;;0.70;99.90;;;;;;5035835;28;20408;-58
2024/01/16 07:54:25;;;;;;;16.40;5.18;;;-0.30;99.90;;;;;;5109064;28;20047;-57
2024/01/16 07:56:51;;;;;;;12.23;5.00;;;-0.20;99.90;;;;;;5111775;28;20161;-56
2024/01/16 07:59:17;;;;;;;15.18;5.22;;;0.60;99.90;;;;;;5105541;28;20439;-55
2024/01/16 08:01:43;;;;;;;19.48;5.78;;;-0.20;99.90;;;;;;5030723;28;20037;-56
2024/01/16 08:04:09;;;;;;;13.63;5.25;;;-0.30;99.90;;;;;;5028812;28;20082;-57
2024/01/16 08:06:35;;;;;;;17.23;6.07;;;0.90;99.90;;;;;;5024463;28;20061;-58
2024/01/16 08:09:00;;;;;;;15.77;5.45;;;1.10;99.90;;;;;;5027475;28;20036;-55
2024/01/16 08:11:26;;;;;;;15.00;5.47;;;1.30;99.90;;;;;;5029400;28;20069;-57
2024/01/16 08:13:52;;;;;;;17.88;6.20;;;0.60;99.90;;;;;;5000122;28;20049;-56
2024/01/16 08:16:17;;;;;;;12.88;5.45;;;1.00;99.90;;;;;;5015614;28;20046;-58
2024/01/16 08:18:43;;;;;;;17.55;6.32;;;0.70;99.90;;;;;;5015460;28;20468;-58
2024/01/16 08:21:09;;;;;;;15.10;6.60;;;0.90;99.90;;;;;;5022049;28;20481;-56
2024/01/16 08:23:34;;;;;;;17.42;6.45;;;-0.20;99.90;;;;;;5030226;28;20087;-56
2024/01/16 08:26:00;;;;;;;21.63;7.68;;;1.10;99.90;;;;;;5001326;28;20042;-57
2024/01/16 08:28:27;;;;;;;18.20;6.85;;;0.90;99.90;;;;;;5033663;28;20042;-58
2024/01/16 08:30:52;;;;;;;23.30;6.88;;;0.50;99.90;;;;;;5022221;28;20136;-57
2024/01/16 08:33:18;;;;;;;19.73;6.90;;;1.00;99.90;;;;;;5021277;28;20214;-56
2024/01/16 08:35:44;;;;;;;18.95;6.43;;;1.30;99.90;;;;;;5013814;28;20057;-57
2024/01/16 08:38:10;;;;;;;23.08;7.25;;;0.90;99.90;;;;;;5022373;28;20503;-58
2024/01/16 08:40:36;;;;;;;18.73;6.70;;;1.00;99.90;;;;;;5031544;28;20038;-58
2024/01/16 08:43:03;;;;;;;20.17;6.03;;;0.00;99.90;;;;;;5023188;28;20445;-56
2024/01/16 08:45:29;;;;;;;14.10;6.15;;;0.60;99.90;;;;;;5023365;28;20061;-56
2024/01/16 08:47:55;;;;;;;14.85;6.03;;;0.90;99.90;;;;;;5020502;28;20156;-54
2024/01/16 08:50:21;;;;;;;22.45;6.20;;;0.40;99.90;;;;;;5016721;28;20128;-57
2024/01/16 08:52:46;;;;;;;12.15;5.05;;;0.10;99.90;;;;;;5025283;28;20038;-55
2024/01/16 08:55:12;;;;;;;15.52;5.95;;;0.40;99.90;;;;;;5027420;28;20091;-57
2024/01/16 08:57:38;;;;;;;14.20;5.97;;;0.00;99.90;;;;;;5035737;28;20074;-57
2024/01/16 09:00:05;;;;;;;12.35;5.22;;;0.50;99.90;;;;;;5022413;28;20043;-59
2024/01/16 09:02:31;;;;;;;13.63;5.43;;;0.90;99.90;;;;;;5028114;28;20121;-57
2024/01/16 09:04:58;;;;;;;13.57;4.95;;;0.80;99.90;;;;;;5025179;28;20183;-58
2024/01/16 09:07:24;;;;;;;11.88;4.32;;;1.20;99.90;;;;;;5023625;28;20493;-58
2024/01/16 09:09:50;;;;;;;12.65;4.72;;;0.30;99.90;;;;;;5023040;28;20041;-57
2024/01/16 09:12:16;;;;;;;12.65;4.47;;;1.40;99.90;;;;;;5015737;28;20057;-56
2024/01/16 09:14:42;;;;;;;14.20;4.78;;;0.90;99.90;;;;;;5019586;28;20030;-58
2024/01/16 09:17:07;;;;;;;8.73;4.57;;;1.10;99.90;;;;;;5030283;28;20052;-59
2024/01/16 09:19:33;;;;;;;9.32;4.75;;;1.40;99.90;;;;;;5003656;28;20446;-57
2024/01/16 09:21:59;;;;;;;15.00;4.97;;;1.40;99.90;;;;;;5024146;28;20034;-56
2024/01/16 09:24:24;;;;;;;10.18;4.50;;;0.80;99.90;;;;;;5008873;28;20032;-59
2024/01/16 09:26:50;;;;;;;13.60;4.25;;;1.30;99.90;;;;;;5004023;28;20524;-57
2024/01/16 09:29:16;;;;;;;12.80;4.55;;;1.60;99.90;;;;;;5019097;28;20053;-56
2024/01/16 09:31:42;;;;;;;10.80;4.45;;;1.60;99.90;;;;;;5011696;28;20570;-56
2024/01/16 09:34:08;;;;;;;13.52;4.90;;;1.30;99.90;;;;;;4998529;28;20052;-57
2024/01/16 09:36:37;;;;;;;9.73;3.90;;;1.70;99.90;;;;;;5026020;28;20040;-56
2024/01/16 09:39:07;;;;;;;6.05;2.50;;;0.80;99.90;;;;;;5019074;28;20038;-57
2024/01/16 09:41:36;;;;;;;6.85;2.60;;;1.80;99.90;;;;;;5021989;28;20044;-55
2024/01/16 09:44:03;;;;;;;6.38;2.55;;;1.80;99.90;;;;;;5023552;28;20074;-53
2024/01/16 09:46:31;;;;;;;8.98;2.25;;;0.60;99.90;;;;;;5041351;28;20478;-55
2024/01/16 09:48:59;;;;;;;4.20;1.83;;;0.80;99.90;;;;;;4999079;28;20048;-55
2024/01/16 09:51:25;;;;;;;9.48;1.90;;;1.70;99.90;;;;;;5010006;28;20121;-57
2024/01/16 09:53:51;;;;;;;6.32;1.98;;;0.60;99.90;;;;;;5023584;28;20488;-57
2024/01/16 09:56:20;;;;;;;6.03;1.60;;;0.50;99.90;;;;;;5020926;28;20051;-57
2024/01/16 09:58:49;;;;;;;8.07;1.17;;;1.30;99.90;;;;;;5018424;28;20038;-57
2024/01/16 10:01:16;;;;;;;4.45;1.33;;;0.90;99.90;;;;;;5011282;28;20484;-59
2024/01/16 10:03:44;;;;;;;8.32;1.58;;;1.80;99.90;;;;;;5003008;28;20121;-57
2024/01/16 10:06:11;;;;;;;7.82;1.55;;;1.00;99.90;;;;;;5028915;28;20098;-56
2024/01/16 10:08:38;;;;;;;6.05;1.38;;;0.80;99.90;;;;;;5027737;28;23235;-58
2024/01/16 10:11:04;;;;;;;8.93;1.55;;;0.90;99.90;;;;;;5025023;28;20044;-56
2024/01/16 10:13:32;;;;;;;10.02;2.13;;;1.30;99.90;;;;;;5004402;28;20061;-58
2024/01/16 10:15:59;;;;;;;4.80;1.20;;;1.30;99.90;;;;;;4991384;28;20050;-56
2024/01/16 10:18:25;;;;;;;10.00;1.50;;;1.70;99.90;;;;;;5013553;28;20343;-56
2024/01/16 10:20:53;;;;;;;6.78;1.55;;;0.70;99.90;;;;;;5090976;28;20123;-56
2024/01/16 10:23:24;;;;;;;8.18;1.45;;;1.50;99.90;;;;;;4998834;28;20075;-57
2024/01/16 10:26:06;;;;;;;6.93;1.33;;;1.40;99.90;;;;;;5085784;28;20122;-56
2024/01/16 10:28:34;;;;;;;6.88;1.20;;;1.40;99.90;;;;;;5086061;28;20506;-58
2024/01/16 10:31:18;;;;;;;8.10;1.70;;;0.80;99.90;;;;;;5075766;28;20049;-57
2024/01/16 10:33:43;;;;;;;6.00;1.88;;;0.80;99.90;;;;;;5016114;28;20526;-58
2024/01/16 10:36:14;;;;;;;8.82;1.90;;;0.70;99.90;;;;;;5081513;28;20134;-58
2024/01/16 10:38:41;;;;;;;12.73;2.08;;;1.80;99.90;;;;;;5055826;28;20087;-57
2024/01/16 10:41:16;;;;;;;7.47;2.13;;;1.70;99.90;;;;;;5091667;28;20039;-56
2024/01/16 10:43:44;;;;;;;16.13;3.95;;;0.70;99.90;;;;;;5025940;28;20175;-58
2024/01/16 10:46:16;;;;;;;15.25;3.22;;;0.70;99.90;;;;;;5072119;28;20406;-57
2024/01/16 10:49:03;;;;;;;6.50;2.88;;;1.80;99.90;;;;;;5094437;28;20087;-56
2024/01/16 10:51:31;;;;;;;12.43;2.58;;;1.00;99.90;;;;;;5069811;27;20087;-57
2024/01/16 10:54:08;;;;;;;9.77;3.53;;;1.20;99.90;;;;;;5083251;28;20066;-59
2024/01/16 10:56:34;;;;;;;10.90;3.03;;;1.50;99.90;;;;;;5087725;28;20678;-57
2024/01/16 10:59:42;;;;;;;11.68;3.38;;;1.10;99.90;;;;;;5008834;28;20041;-58
2024/01/16 11:02:12;;;;;;;10.77;2.90;;;1.00;99.90;;;;;;4964498;28;20053;-59
2024/01/16 11:04:39;;;;;;;10.48;2.90;;;1.80;99.90;;;;;;4956182;28;20050;-56
2024/01/16 11:07:06;;;;;;;13.60;3.65;;;1.70;99.90;;;;;;5021502;28;20065;-58
2024/01/16 11:09:32;;;;;;;15.82;3.42;;;1.30;99.90;;;;;;5066510;28;20483;-59
2024/01/16 11:11:58;;;;;;;11.13;3.78;;;0.70;99.90;;;;;;5021657;28;20085;-59
2024/01/16 11:14:26;;;;;;;13.52;4.75;;;1.50;99.90;;;;;;5055919;28;20037;-59
2024/01/16 11:16:53;;;;;;;14.52;5.60;;;1.00;99.90;;;;;;5051351;28;20053;-58
2024/01/16 11:19:20;;;;;;;20.08;7.55;;;0.80;99.90;;;;;;5064052;28;20462;-58
2024/01/16 11:21:46;;;;;;;16.40;6.65;;;1.50;99.90;;;;;;5022254;28;20128;-57
2024/01/16 11:24:13;;;;;;;23.42;8.15;;;1.50;99.90;;;;;;5079388;28;20044;-58
2024/01/16 11:26:41;;;;;;;20.52;9.20;;;1.80;99.90;;;;;;5094950;28;20045;-58
2024/01/16 11:29:26;;;;;;;23.33;9.13;;;1.20;99.90;;;;;;5075004;28;20047;-59
2024/01/16 11:31:51;;;;;;;;;;;0.70;99.90;;;;;;5106532;28;20063;-59
2024/01/16 11:34:43;;;;;;;26.92;8.48;;;1.60;99.90;;;;;;5083969;28;19949;-59
2024/01/16 11:37:13;;;;;;;21.30;8.80;;;1.90;99.90;;;;;;4999899;28;20047;-60
2024/01/16 11:39:40;;;;;;;22.63;8.95;;;1.90;99.90;;;;;;5020928;28;20485;-58
2024/01/16 11:42:08;;;;;;;19.52;9.30;;;1.80;99.90;;;;;;5022329;28;20032;-57
2024/01/16 11:44:53;;;;;;;18.85;8.68;;;1.80;99.90;;;;;;5111604;28;20486;-60
2024/01/16 11:47:23;;;;;;;22.33;8.95;;;1.70;99.90;;;;;;5034746;28;20063;-59
2024/01/16 11:50:07;;;;;;;19.98;8.90;;;0.80;99.90;;;;;;5023820;28;20073;-59
2024/01/16 11:52:45;;;;;;;21.27;8.15;;;1.90;99.90;;;;;;5020299;28;20049;-58
2024/01/16 11:55:31;;;;;;;24.02;9.23;;;0.70;99.90;;;;;;5018622;28;20038;-58
2024/01/16 11:58:31;;;;;;;20.10;7.60;;;0.90;99.90;;;;;;5015188;28;20148;-58
2024/01/16 12:00:57;;;;;;;16.52;7.57;;;1.90;99.90;;;;;;5024850;28;20042;-58
2024/01/16 12:03:23;;;;;;;15.20;7.28;;;1.20;99.90;;;;;;5027260;28;20367;-58
2024/01/16 12:05:59;;;;;;;13.15;6.90;;;1.10;99.90;;;;;;5039035;28;20062;-60
2024/01/16 12:08:25;;;;;;;17.05;7.03;;;0.90;99.90;;;;;;5033008;28;20061;-59
2024/01/16 12:10:51;;;;;;;13.32;6.50;;;2.00;99.90;;;;;;5033140;28;20036;-60
2024/01/16 12:13:17;;;;;;;17.48;6.55;;;1.10;99.90;;;;;;5015356;28;20032;-59
2024/01/16 12:15:43;;;;;;;14.77;6.45;;;0.90;99.90;;;;;;5018138;28;20038;-59
2024/01/16 12:18:09;;;;;;;19.27;5.97;;;0.90;99.90;;;;;;5014452;28;20030;-58
2024/01/16 12:20:36;;;;;;;18.30;6.95;;;1.00;99.90;;;;;;4994220;28;20189;-58
2024/01/16 12:23:06;;;;;;;13.45;6.70;;;1.30;99.90;;;;;;4992437;28;20036;-58
2024/01/16 12:25:37;;;;;;;17.35;6.50;;;1.00;99.90;;;;;;5013829;28;20038;-60
2024/01/16 12:28:05;;;;;;;19.17;5.43;;;1.30;99.90;;;;;;4999688;28;20038;-58
2024/01/16 12:30:34;;;;;;;10.88;4.80;;;1.40;99.90;;;;;;5020351;28;20191;-60
2024/01/16 12:33:13;;;;;;;9.45;4.70;;;1.60;99.90;;;;;;5017834;28;20125;-59
2024/01/16 12:35:42;;;;;;;17.60;5.43;;;1.50;99.90;;;;;;5015767;28;20073;-59
2024/01/16 12:38:09;;;;;;;17.65;5.00;;;1.40;99.90;;;;;;5015941;28;20397;-58
2024/01/16 12:40:40;;;;;;;9.75;4.70;;;1.50;99.90;;;;;;5026724;28;20033;-59
2024/01/16 12:43:06;;;;;;;16.70;5.80;;;1.30;99.90;;;;;;5023973;28;20037;-59
2024/01/16 12:45:33;;;;;;;12.82;4.35;;;2.10;99.90;;;;;;5008975;28;20034;-59
2024/01/16 12:48:00;;;;;;;17.23;4.65;;;2.40;99.90;;;;;;5014688;28;20063;-59
2024/01/16 12:50:27;;;;;;;10.38;3.55;;;2.60;99.90;;;;;;5010465;28;20113;-58